createdAt,value
2018-02-18T00:00:56.741Z,49.02
2018-02-18T00:03:25.684Z,49.28
2018-02-18T00:05:54.669Z,49.58
2018-02-18T00:08:57.677Z,49.95
2018-02-18T00:11:26.768Z,50.12
2018-02-18T00:13:55.852Z,50.27
2018-02-18T00:19:06.537Z,48.81
2018-02-18T00:21:35.527Z,47.25
2018-02-18T00:24:34.349Z,46.23
2018-02-18T00:27:03.476Z,46.01
2018-02-18T00:30:20.196Z,47.71
2018-02-18T00:32:49.504Z,48.71
2018-02-18T00:36:12.641Z,49.40
2018-02-18T00:38:41.657Z,49.51
2018-02-18T00:41:10.600Z,49.66
2018-02-18T00:43:39.644Z,49.74
2018-02-18T00:46:08.802Z,49.80
2018-02-18T00:48:37.754Z,49.74
2018-02-18T00:51:06.683Z,49.86
2018-02-18T00:53:35.687Z,50.00
2018-02-18T00:56:04.629Z,50.00
2018-02-18T00:58:33.749Z,50.18
2018-02-18T01:01:02.701Z,48.30
2018-02-18T01:06:15.665Z,45.66
2018-02-18T01:08:44.724Z,45.22
2018-02-18T01:11:13.643Z,46.55
2018-02-18T01:13:42.675Z,48.03
2018-02-18T01:17:35.486Z,49.00
2018-02-18T01:20:04.499Z,49.33
2018-02-18T01:22:33.491Z,49.86
2018-02-18T01:25:02.675Z,50.16
2018-02-18T01:27:31.708Z,50.32
2018-02-18T01:30:00.688Z,50.49
2018-02-18T01:32:29.679Z,49.52
2018-02-18T01:34:58.703Z,47.47
2018-02-18T01:37:27.760Z,46.82
2018-02-18T01:39:56.683Z,45.98
2018-02-18T01:42:25.757Z,46.59
2018-02-18T01:44:54.691Z,48.21
2018-02-18T01:47:23.804Z,49.05
2018-02-18T01:49:52.705Z,49.37
2018-02-18T01:54:08.738Z,49.70
2018-02-18T01:56:37.664Z,50.10
2018-02-18T01:59:47.716Z,50.06
2018-02-18T02:03:00.745Z,50.38
2018-02-18T02:05:29.689Z,50.59
2018-02-18T02:07:58.741Z,50.09
2018-02-18T02:10:27.749Z,47.91
2018-02-18T02:12:56.672Z,46.66
2018-02-18T02:15:25.764Z,45.92
2018-02-18T02:17:54.704Z,45.02
2018-02-18T02:20:23.877Z,47.42
2018-02-18T02:22:51.991Z,48.79
2018-02-18T02:26:40.744Z,49.32
2018-02-18T02:30:09.472Z,49.84
2018-02-18T02:32:38.740Z,50.17
2018-02-18T02:35:07.702Z,50.19
2018-02-18T02:37:37.378Z,50.28
2018-02-18T02:40:06.403Z,50.32
2018-02-18T02:45:20.660Z,48.71
2018-02-18T02:47:49.696Z,46.80
2018-02-18T02:50:18.636Z,45.46
2018-02-18T02:52:47.676Z,45.03
2018-02-18T02:58:04.627Z,47.64
2018-02-18T03:00:33.629Z,48.33
2018-02-18T03:03:02.713Z,48.71
2018-02-18T03:05:31.890Z,49.12
2018-02-18T03:08:00.586Z,49.31
2018-02-18T03:10:29.639Z,49.50
2018-02-18T03:13:00.797Z,49.60
2018-02-18T03:15:29.663Z,49.73
2018-02-18T03:17:58.797Z,49.23
2018-02-18T03:20:27.708Z,47.03
2018-02-18T03:27:09.743Z,45.51
2018-02-18T03:30:35.789Z,47.58
2018-02-18T03:33:04.737Z,48.53
2018-02-18T03:35:33.769Z,48.92
2018-02-18T03:38:02.793Z,49.14
2018-02-18T03:42:15.667Z,49.46
2018-02-18T03:44:44.683Z,49.69
2018-02-18T03:47:13.689Z,49.76
2018-02-18T03:49:42.749Z,49.84
2018-02-18T03:54:50.726Z,49.99
2018-02-18T03:57:19.639Z,48.80
2018-02-18T03:59:48.645Z,46.84
2018-02-18T04:02:17.685Z,46.10
2018-02-18T04:04:46.632Z,45.45
2018-02-18T04:07:15.697Z,44.91
2018-02-18T04:10:17.581Z,46.87
2018-02-18T04:12:46.859Z,48.32
2018-02-18T04:15:15.784Z,48.71
2018-02-18T04:17:44.785Z,48.88
2018-02-18T04:20:13.685Z,49.28
2018-02-18T04:22:42.672Z,49.65
2018-02-18T04:25:11.914Z,49.95
2018-02-18T04:27:40.517Z,50.14
2018-02-18T04:30:09.654Z,50.12
2018-02-18T04:32:39.228Z,48.97
2018-02-18T04:37:56.466Z,45.89
2018-02-18T04:40:26.063Z,45.73
2018-02-18T04:42:55.514Z,46.66
2018-02-18T04:45:24.821Z,47.91
2018-02-18T04:47:53.877Z,48.21
2018-02-18T04:50:22.716Z,48.51
2018-02-18T04:52:52.184Z,48.75
2018-02-18T04:55:21.512Z,49.07
2018-02-18T04:57:50.620Z,49.26
2018-02-18T05:00:20.237Z,49.50
2018-02-18T05:02:49.789Z,49.44
2018-02-18T05:05:18.687Z,49.62
2018-02-18T05:10:07.488Z,46.60
2018-02-18T05:12:36.859Z,45.60
2018-02-18T05:15:06.244Z,45.20
2018-02-18T05:17:35.817Z,45.08
2018-02-18T05:20:04.879Z,47.19
2018-02-18T05:22:34.130Z,48.27
2018-02-18T05:25:03.746Z,48.52
2018-02-18T05:27:32.715Z,48.95
2018-02-18T05:30:01.752Z,49.19
2018-02-18T05:32:30.872Z,49.33
2018-02-18T05:35:00.210Z,49.38
2018-02-18T05:37:29.544Z,49.43
2018-02-18T05:39:58.783Z,49.29
2018-02-18T05:44:13.207Z,47.05
2018-02-18T05:50:31.573Z,44.79
2018-02-18T05:53:23.801Z,44.76
2018-02-18T05:55:52.829Z,46.21
2018-02-18T05:58:21.775Z,47.41
2018-02-18T06:00:51.541Z,47.99
2018-02-18T06:03:20.752Z,48.42
2018-02-18T06:07:13.037Z,48.68
2018-02-18T06:09:41.803Z,48.92
2018-02-18T06:12:11.230Z,49.15
2018-02-18T06:14:40.790Z,49.35
2018-02-18T06:19:08.933Z,47.42
2018-02-18T06:21:37.283Z,45.53
2018-02-18T06:24:06.676Z,43.81
2018-02-18T06:26:35.732Z,41.69
2018-02-18T06:30:32.736Z,40.57
2018-02-18T06:35:45.731Z,40.53
2018-02-18T06:38:14.911Z,39.55
2018-02-18T06:40:43.051Z,38.40
2018-02-18T06:43:11.707Z,39.83
2018-02-18T06:45:40.695Z,40.24
2018-02-18T06:48:09.738Z,41.48
2018-02-18T06:50:38.781Z,41.46
2018-02-18T06:53:07.768Z,41.70
2018-02-18T06:55:36.663Z,40.72
2018-02-18T06:58:05.703Z,39.68
2018-02-18T07:00:34.687Z,39.30
2018-02-18T07:03:03.716Z,38.99
2018-02-18T07:05:32.773Z,39.69
2018-02-18T07:10:35.712Z,42.15
2018-02-18T07:13:04.694Z,42.66
2018-02-18T07:15:33.741Z,43.05
2018-02-18T07:18:02.656Z,43.56
2018-02-18T07:20:32.185Z,43.75
2018-02-18T07:23:01.219Z,44.18
2018-02-18T07:25:30.707Z,44.51
2018-02-18T07:27:59.695Z,44.78
2018-02-18T07:30:28.730Z,42.92
2018-02-18T07:32:57.740Z,37.97
2018-02-18T07:35:29.511Z,33.88
2018-02-18T07:37:58.761Z,32.88
2018-02-18T07:40:32.774Z,32.88
2018-02-18T07:43:08.855Z,34.87
2018-02-18T07:45:39.990Z,36.59
2018-02-18T07:48:08.637Z,38.56
2018-02-18T07:50:37.575Z,39.54
2018-02-18T07:53:06.680Z,40.40
2018-02-18T07:55:35.736Z,40.88
2018-02-18T07:58:04.761Z,41.49
2018-02-18T08:00:33.639Z,41.91
2018-02-18T08:03:02.623Z,42.12
2018-02-18T08:05:31.717Z,42.35
2018-02-18T08:08:00.656Z,42.43
2018-02-18T08:10:29.668Z,41.13
2018-02-18T08:14:49.541Z,39.90
2018-02-18T08:17:18.656Z,39.78
2018-02-18T08:19:47.769Z,41.09
2018-02-18T08:22:16.753Z,41.45
2018-02-18T08:24:45.757Z,42.30
2018-02-18T08:27:14.644Z,42.41
2018-02-18T08:29:43.648Z,42.39
2018-02-18T08:32:12.620Z,42.75
2018-02-18T08:34:41.761Z,43.50
2018-02-18T08:37:10.692Z,43.59
2018-02-18T08:39:39.685Z,43.88
2018-02-18T08:44:43.709Z,44.41
2018-02-18T08:47:12.630Z,42.46
2018-02-18T08:49:41.627Z,40.94
2018-02-18T08:52:10.702Z,39.73
2018-02-18T08:54:39.844Z,40.09
2018-02-18T08:57:11.462Z,41.69
2018-02-18T08:59:40.421Z,42.45
2018-02-18T09:02:09.556Z,42.53
2018-02-18T09:04:38.559Z,42.91
2018-02-18T09:07:07.681Z,43.14
2018-02-18T09:09:36.659Z,43.45
2018-02-18T09:12:05.644Z,43.69
2018-02-18T09:14:34.652Z,43.74
2018-02-18T09:17:03.718Z,42.25
2018-02-18T09:19:32.685Z,40.94
2018-02-18T09:22:01.696Z,40.11
2018-02-18T09:24:30.746Z,40.03
2018-02-18T09:26:59.659Z,41.45
2018-02-18T09:29:28.627Z,42.03
2018-02-18T09:31:57.716Z,42.16
2018-02-18T09:34:26.625Z,42.76
2018-02-18T09:38:51.775Z,43.59
2018-02-18T09:41:20.704Z,43.18
2018-02-18T09:43:49.708Z,42.83
2018-02-18T09:46:18.877Z,42.39
2018-02-18T09:48:47.684Z,41.68
2018-02-18T09:51:16.760Z,39.95
2018-02-18T09:53:45.786Z,38.60
2018-02-18T09:56:14.737Z,39.12
2018-02-18T09:58:43.683Z,40.78
2018-02-18T10:01:12.714Z,41.31
2018-02-18T10:04:52.730Z,42.29
2018-02-18T10:07:21.631Z,42.66
2018-02-18T10:09:50.813Z,42.88
2018-02-18T10:12:19.747Z,43.14
2018-02-18T10:14:48.685Z,43.50
2018-02-18T10:17:17.623Z,43.77
2018-02-18T10:19:46.607Z,43.73
2018-02-18T10:22:15.541Z,42.35
2018-02-18T10:26:12.501Z,40.52
2018-02-18T10:28:41.661Z,39.76
2018-02-18T10:31:10.676Z,41.97
2018-02-18T10:33:39.773Z,43.09
2018-02-18T10:36:51.669Z,43.66
2018-02-18T10:39:20.611Z,43.76
2018-02-18T10:41:49.572Z,43.92
2018-02-18T10:44:18.653Z,44.05
2018-02-18T10:48:20.729Z,44.41
2018-02-18T10:50:49.681Z,44.63
2018-02-18T10:55:05.214Z,44.88
2018-02-18T10:57:34.649Z,45.01
2018-02-18T11:00:03.619Z,43.08
2018-02-18T11:02:32.710Z,42.08
2018-02-18T11:05:01.624Z,41.09
2018-02-18T11:07:30.616Z,41.48
2018-02-18T11:09:59.700Z,43.22
2018-02-18T11:12:28.744Z,44.04
2018-02-18T11:14:57.631Z,44.27
2018-02-18T11:17:26.723Z,44.63
2018-02-18T11:19:55.877Z,44.93
2018-02-18T11:22:24.752Z,45.10
2018-02-18T11:24:53.671Z,45.32
2018-02-18T11:28:20.308Z,45.58
2018-02-18T11:30:48.979Z,44.81
2018-02-18T11:33:17.437Z,42.48
2018-02-18T11:35:46.660Z,41.50
2018-02-18T11:39:20.692Z,40.64
2018-02-18T11:43:19.717Z,43.47
2018-02-18T11:45:48.766Z,44.29
2018-02-18T11:48:17.807Z,44.53
2018-02-18T11:50:46.651Z,44.78
2018-02-18T11:53:15.753Z,45.06
2018-02-18T11:55:44.729Z,45.04
2018-02-18T11:58:13.632Z,45.17
2018-02-18T12:00:42.680Z,45.21
2018-02-18T12:03:11.760Z,45.24
2018-02-18T12:05:40.707Z,43.87
2018-02-18T12:08:09.632Z,42.29
2018-02-18T12:10:38.762Z,41.40
2018-02-18T12:13:07.757Z,41.52
2018-02-18T12:15:36.631Z,42.81
2018-02-18T12:20:43.344Z,44.44
2018-02-18T12:23:12.524Z,44.86
2018-02-18T12:26:45.537Z,45.18
2018-02-18T12:33:00.683Z,45.54
2018-02-18T12:35:29.781Z,45.51
2018-02-18T12:37:58.677Z,45.55
2018-02-18T12:40:27.797Z,45.49
2018-02-18T12:42:56.758Z,44.02
2018-02-18T12:45:25.797Z,41.83
2018-02-18T12:47:54.780Z,40.62
2018-02-18T12:50:23.788Z,41.37
2018-02-18T12:52:52.632Z,43.14
2018-02-18T12:55:21.687Z,44.25
2018-02-18T12:59:24.739Z,45.08
2018-02-18T13:01:53.708Z,45.38
2018-02-18T13:04:22.773Z,45.59
2018-02-18T13:06:51.682Z,45.45
2018-02-18T13:09:20.761Z,45.84
2018-02-18T13:14:07.320Z,45.93
2018-02-18T13:16:36.695Z,43.92
2018-02-18T13:19:05.789Z,42.23
2018-02-18T13:21:34.686Z,41.45
2018-02-18T13:24:03.778Z,41.33
2018-02-18T13:26:32.737Z,43.16
2018-02-18T13:29:01.675Z,44.17
2018-02-18T13:31:30.797Z,44.55
2018-02-18T13:33:59.712Z,44.80
2018-02-18T13:36:28.735Z,44.90
2018-02-18T13:38:57.808Z,45.06
2018-02-18T13:41:26.747Z,45.08
2018-02-18T13:43:55.712Z,45.05
2018-02-18T13:46:24.793Z,44.99
2018-02-18T13:48:53.705Z,45.17
2018-02-18T13:51:22.826Z,45.25
2018-02-18T13:54:29.609Z,44.41
2018-02-18T13:56:58.636Z,42.30
2018-02-18T13:59:27.668Z,41.40
2018-02-18T14:01:56.797Z,40.39
2018-02-18T14:04:25.705Z,41.91
2018-02-18T14:06:54.668Z,43.35
2018-02-18T14:09:23.720Z,44.03
2018-02-18T14:11:52.873Z,44.51
2018-02-18T14:14:22.680Z,44.79
2018-02-18T14:16:51.800Z,45.68
2018-02-18T14:20:00.499Z,45.81
2018-02-18T14:22:29.493Z,45.55
2018-02-18T14:27:07.624Z,45.14
2018-02-18T14:29:36.754Z,43.22
2018-02-18T14:32:05.698Z,42.70
2018-02-18T14:34:34.680Z,41.20
2018-02-18T14:37:03.726Z,42.22
2018-02-18T14:39:32.656Z,43.52
2018-02-18T14:42:13.526Z,44.10
2018-02-18T14:44:54.452Z,44.45
2018-02-18T14:47:35.648Z,44.83
2018-02-18T14:50:16.678Z,45.20
2018-02-18T14:55:54.515Z,45.79
2018-02-18T14:58:23.736Z,45.99
2018-02-18T15:00:52.789Z,46.11
2018-02-18T15:03:21.740Z,45.88
2018-02-18T15:05:50.675Z,43.63
2018-02-18T15:13:02.670Z,42.70
2018-02-18T15:15:31.623Z,44.13
2018-02-18T15:18:00.689Z,44.98
2018-02-18T15:20:29.766Z,45.39
2018-02-18T15:22:58.682Z,45.65
2018-02-18T15:25:27.664Z,46.04
2018-02-18T15:30:07.704Z,46.28
2018-02-18T15:34:23.408Z,46.17
2018-02-18T15:36:52.500Z,46.34
2018-02-18T15:39:21.552Z,46.49
2018-02-18T15:41:50.743Z,45.90
2018-02-18T15:44:19.769Z,43.31
2018-02-18T15:48:12.607Z,42.03
2018-02-18T15:50:41.646Z,42.32
2018-02-18T15:53:10.608Z,44.25
2018-02-18T15:55:39.612Z,45.23
2018-02-18T15:58:08.736Z,45.65
2018-02-18T16:00:37.745Z,46.04
2018-02-18T16:03:06.624Z,46.46
2018-02-18T16:05:35.684Z,46.66
2018-02-18T16:08:04.731Z,47.02
2018-02-18T16:10:33.752Z,47.22
2018-02-18T16:13:02.761Z,47.35
2018-02-18T16:15:31.693Z,44.96
2018-02-18T16:18:00.610Z,43.74
2018-02-18T16:22:49.805Z,43.70
2018-02-18T16:25:18.853Z,45.57
2018-02-18T16:27:47.726Z,46.04
2018-02-18T16:31:12.009Z,46.45
2018-02-18T16:33:40.771Z,46.69
2018-02-18T16:36:09.760Z,46.90
2018-02-18T16:38:38.701Z,47.00
2018-02-18T16:41:07.632Z,47.16
2018-02-18T16:43:36.761Z,47.28
2018-02-18T16:46:05.713Z,47.42
2018-02-18T16:48:34.632Z,47.46
2018-02-18T16:51:03.622Z,46.59
2018-02-18T16:53:32.813Z,44.16
2018-02-18T16:56:01.660Z,43.25
2018-02-18T16:58:30.746Z,42.64
2018-02-18T17:01:01.397Z,44.54
2018-02-18T17:03:30.957Z,46.03
2018-02-18T17:05:59.640Z,46.28
2018-02-18T17:09:35.696Z,47.19
2018-02-18T17:12:06.312Z,46.40
2018-02-18T17:14:35.427Z,46.62
2018-02-18T17:17:04.766Z,47.35
2018-02-18T17:19:34.181Z,47.66
2018-02-18T17:22:03.900Z,47.93
2018-02-18T17:24:32.572Z,46.25
2018-02-18T17:27:01.712Z,44.91
2018-02-18T17:29:30.912Z,44.03
2018-02-18T17:32:31.052Z,45.28
2018-02-18T17:35:00.578Z,46.65
2018-02-18T17:37:29.808Z,46.78
2018-02-18T17:39:58.732Z,47.01
2018-02-18T17:44:17.708Z,47.65
2018-02-18T17:49:35.725Z,48.69
2018-02-18T17:59:46.834Z,49.76
2018-02-18T18:02:16.320Z,47.21
2018-02-18T18:04:45.790Z,45.41
2018-02-18T18:07:14.732Z,44.74
2018-02-18T18:09:43.748Z,44.56
2018-02-18T18:12:13.199Z,45.69
2018-02-18T18:14:42.274Z,46.42
2018-02-18T18:17:11.780Z,46.82
2018-02-18T18:19:41.167Z,47.49
2018-02-18T18:22:10.711Z,47.73
2018-02-18T18:24:39.681Z,47.79
2018-02-18T18:27:08.817Z,48.34
2018-02-18T18:29:37.789Z,48.47
2018-02-18T18:32:06.712Z,48.55
2018-02-18T18:34:35.815Z,48.69
2018-02-18T18:37:04.941Z,48.36
2018-02-18T18:42:19.195Z,44.16
2018-02-18T18:44:48.042Z,44.08
2018-02-18T18:47:17.680Z,44.92
2018-02-18T18:49:46.684Z,46.39
2018-02-18T18:52:15.802Z,47.39
2018-02-18T18:56:01.749Z,48.69
2018-02-18T18:58:30.717Z,48.21
2018-02-18T19:00:59.661Z,48.38
2018-02-18T19:04:14.689Z,48.69
2018-02-18T19:06:43.689Z,48.66
2018-02-18T19:09:12.692Z,48.51
2018-02-18T19:11:41.676Z,47.57
2018-02-18T19:14:10.741Z,45.14
2018-02-18T19:16:39.769Z,42.80
2018-02-18T19:19:08.686Z,40.97
2018-02-18T19:21:37.628Z,41.15
2018-02-18T19:24:06.684Z,42.44
2018-02-18T19:26:35.723Z,42.30
2018-02-18T19:29:04.673Z,41.33
2018-02-18T19:31:33.677Z,41.11
2018-02-18T19:34:02.655Z,40.61
2018-02-18T19:36:31.692Z,40.20
2018-02-18T19:39:00.698Z,39.50
2018-02-18T19:41:58.413Z,39.65
2018-02-18T19:44:27.206Z,39.95
2018-02-18T19:46:55.853Z,39.42
2018-02-18T19:49:25.189Z,37.59
2018-02-18T19:51:54.229Z,37.51
2018-02-18T19:54:23.661Z,37.58
2018-02-18T19:59:31.486Z,40.26
2018-02-18T20:02:00.615Z,41.04
2018-02-18T20:04:29.668Z,41.41
2018-02-18T20:06:59.614Z,41.91
2018-02-18T20:11:39.733Z,42.83
2018-02-18T20:16:04.217Z,43.09
2018-02-18T20:18:33.645Z,42.97
2018-02-18T20:21:02.706Z,41.35
2018-02-18T20:23:31.644Z,39.33
2018-02-18T20:29:06.612Z,37.83
2018-02-18T20:31:35.625Z,38.76
2018-02-18T20:34:04.680Z,38.47
2018-02-18T20:36:33.623Z,38.17
2018-02-18T20:39:02.660Z,37.95
2018-02-18T20:41:31.681Z,37.94
2018-02-18T20:44:00.769Z,38.14
2018-02-18T20:46:29.753Z,38.52
2018-02-18T20:48:58.680Z,38.83
2018-02-18T20:51:27.676Z,38.62
2018-02-18T20:53:57.768Z,36.96
2018-02-18T20:57:09.644Z,36.55
2018-02-18T20:59:38.660Z,36.55
2018-02-18T21:02:07.681Z,38.76
2018-02-18T21:04:36.844Z,39.26
2018-02-18T21:07:05.773Z,39.78
2018-02-18T21:09:34.692Z,40.00
2018-02-18T21:12:03.604Z,40.27
2018-02-18T21:14:32.734Z,40.47
2018-02-18T21:17:01.721Z,40.71
2018-02-18T21:19:30.664Z,40.83
2018-02-18T21:21:59.773Z,40.52
2018-02-18T21:24:28.684Z,38.85
2018-02-18T21:26:57.655Z,38.54
2018-02-18T21:29:26.766Z,37.88
2018-02-18T21:31:55.704Z,39.75
2018-02-18T21:34:24.724Z,39.84
2018-02-18T21:36:53.781Z,39.84
2018-02-18T21:39:22.716Z,39.48
2018-02-18T21:41:51.768Z,39.99
2018-02-18T21:44:20.716Z,40.36
2018-02-18T21:46:49.741Z,40.77
2018-02-18T21:49:18.733Z,41.10
2018-02-18T21:51:47.808Z,41.23
2018-02-18T21:54:16.800Z,41.69
2018-02-18T21:56:45.797Z,40.44
2018-02-18T21:59:14.789Z,38.50
2018-02-18T22:01:43.768Z,37.96
2018-02-18T22:04:13.139Z,37.76
2018-02-18T22:06:41.880Z,40.17
2018-02-18T22:09:10.628Z,40.97
2018-02-18T22:11:39.681Z,41.51
2018-02-18T22:14:08.741Z,41.84
2018-02-18T22:16:37.619Z,42.17
2018-02-18T22:19:06.656Z,42.28
2018-02-18T22:21:35.611Z,42.56
2018-02-18T22:24:05.520Z,42.72
2018-02-18T22:26:34.599Z,42.95
2018-02-18T22:29:03.721Z,42.97
2018-02-18T22:31:32.735Z,41.19
2018-02-18T22:34:01.690Z,39.76
2018-02-18T22:36:31.656Z,38.85
2018-02-18T22:39:00.581Z,39.68
2018-02-18T22:41:29.617Z,41.55
2018-02-18T22:43:58.765Z,42.48
2018-02-18T22:46:27.754Z,42.65
2018-02-18T22:48:56.716Z,42.95
2018-02-18T22:51:25.639Z,43.22
2018-02-18T22:53:54.660Z,43.52
2018-02-18T22:56:23.540Z,43.63
2018-02-18T22:58:52.568Z,43.78
2018-02-18T23:03:23.730Z,42.51
2018-02-18T23:05:53.665Z,40.88
2018-02-18T23:08:22.697Z,39.72
2018-02-18T23:10:51.668Z,39.79
2018-02-18T23:13:20.745Z,41.58
2018-02-18T23:15:49.667Z,42.79
2018-02-18T23:18:18.619Z,43.24
2018-02-18T23:20:59.705Z,43.71
2018-02-18T23:23:28.699Z,43.84
2018-02-18T23:25:57.680Z,44.08
2018-02-18T23:28:26.704Z,44.14
2018-02-18T23:30:55.628Z,44.18
2018-02-18T23:33:24.650Z,44.44
2018-02-18T23:35:53.749Z,44.59
2018-02-18T23:38:22.657Z,44.73
2018-02-18T23:40:51.705Z,42.88
2018-02-18T23:43:20.627Z,41.39
2018-02-18T23:45:49.760Z,40.66
2018-02-18T23:48:18.668Z,40.83
2018-02-18T23:50:47.753Z,43.10
2018-02-18T23:53:16.748Z,44.08
2018-02-18T23:55:45.660Z,44.32
2018-02-18T23:58:14.676Z,44.68
